createdAt,value
2023-09-01T00:01:17.324Z,58.71
2023-09-01T00:03:44.099Z,59.02
2023-09-01T00:06:15.304Z,58.97
2023-09-01T00:08:42.526Z,59.54
2023-09-01T00:11:09.202Z,59.37
2023-09-01T00:13:35.828Z,56.65
2023-09-01T00:16:02.465Z,58.95
2023-09-01T00:18:29.133Z,56.42
2023-09-01T00:20:59.945Z,58.29
2023-09-01T00:23:26.804Z,58.83
2023-09-01T00:25:58.676Z,58.49
2023-09-01T00:28:25.740Z,58.75
2023-09-01T00:30:56.011Z,59.08
2023-09-01T00:33:26.270Z,58.71
2023-09-01T00:35:53.570Z,58.66
2023-09-01T00:38:20.576Z,58.68
2023-09-01T00:40:50.339Z,58.68
2023-09-01T00:43:17.402Z,59.14
2023-09-01T00:45:44.751Z,59.01
2023-09-01T00:48:14.591Z,59.29
2023-09-01T00:50:42.213Z,59.58
2023-09-01T00:53:09.322Z,59.54
2023-09-01T00:55:36.994Z,59.92
2023-09-01T00:58:04.356Z,59.77
2023-09-01T01:00:33.926Z,59.80
2023-09-01T01:03:06.734Z,59.31
2023-09-01T01:05:51.249Z,59.55
2023-09-01T01:09:01.591Z,58.34
2023-09-01T01:11:36.455Z,59.27
2023-09-01T01:14:07.848Z,59.65
2023-09-01T01:16:35.377Z,60.04
2023-09-01T01:19:20.229Z,59.39
2023-09-01T01:21:51.877Z,60.03
2023-09-01T01:24:19.046Z,59.87
2023-09-01T01:26:45.647Z,60.43
2023-09-01T01:29:12.158Z,57.40
2023-09-01T01:31:39.198Z,60.24
2023-09-01T01:34:20.970Z,59.64
2023-09-01T01:36:54.456Z,60.20
2023-09-01T01:39:26.242Z,59.97
2023-09-01T01:41:57.706Z,60.01
2023-09-01T01:44:36.421Z,59.72
2023-09-01T01:47:05.238Z,60.46
2023-09-01T01:49:32.170Z,60.54
2023-09-01T01:51:59.813Z,60.67
2023-09-01T01:54:26.416Z,60.42
2023-09-01T01:56:53.755Z,57.75
2023-09-01T01:59:20.403Z,60.15
2023-09-01T02:01:46.998Z,60.18
2023-09-01T02:04:13.647Z,60.55
2023-09-01T02:06:40.340Z,60.58
2023-09-01T02:09:11.047Z,57.59
2023-09-01T02:11:38.043Z,60.44
2023-09-01T02:14:05.538Z,60.59
2023-09-01T02:16:32.391Z,60.33
2023-09-01T02:18:59.237Z,60.49
2023-09-01T02:21:25.949Z,60.78
2023-09-01T02:23:52.529Z,58.10
2023-09-01T02:26:23.124Z,60.12
2023-09-01T02:28:51.035Z,60.57
2023-09-01T02:31:17.937Z,60.70
2023-09-01T02:33:44.964Z,60.48
2023-09-01T02:36:29.882Z,59.61
2023-09-01T02:38:57.593Z,60.35
2023-09-01T02:41:24.771Z,60.26
2023-09-01T02:43:52.129Z,60.39
2023-09-01T02:46:18.993Z,60.22
2023-09-01T02:48:45.892Z,60.31
2023-09-01T02:51:12.470Z,60.16
2023-09-01T02:53:39.269Z,58.09
2023-09-01T02:56:08.518Z,60.24
2023-09-01T02:58:35.859Z,60.23
2023-09-01T03:01:09.606Z,60.33
2023-09-01T03:03:44.547Z,60.66
2023-09-01T03:06:11.870Z,60.88
2023-09-01T03:08:39.479Z,60.80
2023-09-01T03:11:06.696Z,61.07
2023-09-01T03:13:33.491Z,60.96
2023-09-01T03:16:00.345Z,60.80
2023-09-01T03:18:27.054Z,60.90
2023-09-01T03:20:54.724Z,61.32
2023-09-01T03:23:22.541Z,61.09
2023-09-01T03:25:56.687Z,60.56
2023-09-01T03:28:23.833Z,61.66
2023-09-01T03:30:50.548Z,61.17
2023-09-01T03:33:17.350Z,61.20
2023-09-01T03:35:44.002Z,61.22
2023-09-01T03:38:10.574Z,58.71
2023-09-01T03:40:37.959Z,60.79
2023-09-01T03:43:04.624Z,60.88
2023-09-01T03:45:31.170Z,58.71
2023-09-01T03:47:57.822Z,60.64
2023-09-01T03:50:24.307Z,58.34
2023-09-01T03:52:50.969Z,60.30
2023-09-01T03:55:17.525Z,58.22
2023-09-01T03:57:45.264Z,60.70
2023-09-01T04:00:13.053Z,60.63
2023-09-01T04:02:39.705Z,61.11
2023-09-01T04:05:06.508Z,58.71
2023-09-01T04:07:33.149Z,60.75
2023-09-01T04:09:59.689Z,58.27
2023-09-01T04:12:26.319Z,60.71
2023-09-01T04:14:52.896Z,58.46
2023-09-01T04:17:19.564Z,60.42
2023-09-01T04:19:49.095Z,58.16
2023-09-01T04:22:15.943Z,60.51
2023-09-01T04:24:42.799Z,60.53
2023-09-01T04:27:09.429Z,60.82
2023-09-01T04:29:38.180Z,58.28
2023-09-01T04:32:05.113Z,60.87
2023-09-01T04:34:33.507Z,61.10
2023-09-01T04:37:00.085Z,61.04
2023-09-01T04:39:26.593Z,58.86
2023-09-01T04:41:53.221Z,61.00
2023-09-01T04:44:19.912Z,58.26
2023-09-01T04:46:46.516Z,60.36
2023-09-01T04:49:13.073Z,58.63
2023-09-01T04:51:39.665Z,60.42
2023-09-01T04:54:06.165Z,58.25
2023-09-01T04:56:34.185Z,60.50
2023-09-01T04:59:00.784Z,60.33
2023-09-01T05:01:27.345Z,58.53
2023-09-01T05:03:53.948Z,60.29
2023-09-01T05:06:20.495Z,58.09
2023-09-01T05:08:47.088Z,60.07
2023-09-01T05:11:13.631Z,57.95
2023-09-01T05:13:40.220Z,60.24
2023-09-01T05:16:08.593Z,58.22
2023-09-01T05:18:35.384Z,60.29
2023-09-01T05:21:01.988Z,60.58
2023-09-01T05:23:32.550Z,58.54
2023-09-01T05:25:59.165Z,62.34
2023-09-01T05:28:25.670Z,59.14
2023-09-01T05:30:52.306Z,62.92
2023-09-01T05:33:18.892Z,59.91
2023-09-01T05:35:45.519Z,63.02
2023-09-01T05:38:12.153Z,59.88
2023-09-01T05:40:39.115Z,60.86
2023-09-01T05:43:06.022Z,60.78
2023-09-01T05:45:32.701Z,59.77
2023-09-01T05:47:59.499Z,59.16
2023-09-01T05:50:26.249Z,58.84
2023-09-01T05:52:52.973Z,58.69
2023-09-01T05:55:19.495Z,57.94
2023-09-01T05:57:46.089Z,58.36
2023-09-01T06:00:12.861Z,57.46
2023-09-01T06:02:39.666Z,58.18
2023-09-01T06:05:06.903Z,58.43
2023-09-01T06:07:33.576Z,58.88
2023-09-01T06:10:00.202Z,58.81
2023-09-01T06:12:26.754Z,57.45
2023-09-01T06:14:53.370Z,58.39
2023-09-01T06:17:26.767Z,57.04
2023-09-01T06:19:59.371Z,58.50
2023-09-01T06:22:25.876Z,57.41
2023-09-01T06:24:52.531Z,58.86
2023-09-01T06:27:19.238Z,59.81
2023-09-01T06:29:45.828Z,59.42
2023-09-01T06:32:13.113Z,57.82
2023-09-01T06:34:39.890Z,59.02
2023-09-01T06:37:06.627Z,59.01
2023-09-01T06:39:33.787Z,58.66
2023-09-01T06:42:00.526Z,58.74
2023-09-01T06:44:27.193Z,58.77
2023-09-01T06:46:53.785Z,58.87
2023-09-01T06:49:20.360Z,58.06
2023-09-01T06:51:46.961Z,58.97
2023-09-01T06:54:13.468Z,57.92
2023-09-01T06:56:40.046Z,58.86
2023-09-01T06:59:06.543Z,57.63
2023-09-01T07:01:33.202Z,58.46
2023-09-01T07:03:59.846Z,58.48
2023-09-01T07:06:26.469Z,58.28
2023-09-01T07:08:52.966Z,57.51
2023-09-01T07:11:20.941Z,58.43
2023-09-01T07:13:51.006Z,58.11
2023-09-01T07:16:17.756Z,57.07
2023-09-01T07:18:44.427Z,57.61
2023-09-01T07:21:11.018Z,57.66
2023-09-01T07:23:37.520Z,57.15
2023-09-01T07:26:05.089Z,57.37
2023-09-01T07:28:31.668Z,56.44
2023-09-01T07:30:58.257Z,56.56
2023-09-01T07:33:24.991Z,56.97
2023-09-01T07:35:53.544Z,56.74
2023-09-01T07:38:20.239Z,57.17
2023-09-01T07:40:46.993Z,57.35
2023-09-01T07:43:13.712Z,57.32
2023-09-01T07:45:41.095Z,56.92
2023-09-01T07:48:20.768Z,56.75
2023-09-01T07:50:49.845Z,56.89
2023-09-01T07:53:16.492Z,56.01
2023-09-01T07:55:43.167Z,56.04
2023-09-01T07:58:09.848Z,55.03
2023-09-01T08:00:39.064Z,55.10
2023-09-01T08:03:07.374Z,55.18
2023-09-01T08:05:34.074Z,55.22
2023-09-01T08:08:00.658Z,54.73
2023-09-01T08:10:27.234Z,53.99
2023-09-01T08:12:53.822Z,54.45
2023-09-01T08:15:20.435Z,53.78
2023-09-01T08:17:47.358Z,53.60
2023-09-01T08:20:17.381Z,54.02
2023-09-01T08:22:44.154Z,53.76
2023-09-01T08:25:10.829Z,53.17
2023-09-01T08:27:37.448Z,53.16
2023-09-01T08:30:05.048Z,52.81
2023-09-01T08:32:31.691Z,53.45
2023-09-01T08:34:58.361Z,52.67
2023-09-01T08:37:24.978Z,52.91
2023-09-01T08:39:51.560Z,52.22
2023-09-01T08:42:20.335Z,52.05
2023-09-01T08:44:47.529Z,51.40
2023-09-01T08:47:23.810Z,52.16
2023-09-01T08:49:51.498Z,51.54
2023-09-01T08:52:21.657Z,51.41
2023-09-01T08:54:49.397Z,50.23
2023-09-01T08:57:16.110Z,50.16
2023-09-01T08:59:44.179Z,50.58
2023-09-01T09:02:11.111Z,49.62
2023-09-01T09:04:37.964Z,50.03
2023-09-01T09:07:19.518Z,50.04
2023-09-01T09:10:00.061Z,50.59
2023-09-01T09:12:40.795Z,50.03
2023-09-01T09:15:07.945Z,49.34
2023-09-01T09:17:42.269Z,49.57
2023-09-01T09:20:09.944Z,49.06
2023-09-01T09:22:54.105Z,49.70
2023-09-01T09:25:34.860Z,48.59
2023-09-01T09:28:11.000Z,47.74
2023-09-01T09:30:37.683Z,46.85
2023-09-01T09:33:06.572Z,47.07
2023-09-01T09:35:48.942Z,47.44
2023-09-01T09:38:15.792Z,47.17
2023-09-01T09:40:42.632Z,46.55
2023-09-01T09:43:10.775Z,46.55
2023-09-01T09:45:39.967Z,46.29
2023-09-01T09:48:07.295Z,46.82
2023-09-01T09:50:36.114Z,46.13
2023-09-01T09:53:07.068Z,47.59
2023-09-01T09:55:54.828Z,46.05
2023-09-01T09:58:33.283Z,46.52
2023-09-01T10:01:03.939Z,46.54
2023-09-01T10:03:31.162Z,45.82
2023-09-01T10:05:59.581Z,46.32
2023-09-01T10:08:27.618Z,46.03
2023-09-01T10:10:58.581Z,46.36
2023-09-01T10:13:26.713Z,46.31
2023-09-01T10:15:54.569Z,45.80
2023-09-01T10:18:22.473Z,46.18
2023-09-01T10:20:49.564Z,47.20
2023-09-01T10:23:16.163Z,46.55
2023-09-01T10:26:03.107Z,48.44
2023-09-01T10:28:29.773Z,44.76
2023-09-01T10:31:16.425Z,43.65
2023-09-01T10:33:43.203Z,43.86
2023-09-01T10:36:15.096Z,45.21
2023-09-01T10:38:42.251Z,43.82
2023-09-01T10:41:08.931Z,44.45
2023-09-01T10:43:38.859Z,43.89
2023-09-01T10:46:17.728Z,45.63
2023-09-01T10:49:00.726Z,45.41
2023-09-01T10:51:35.463Z,45.35
2023-09-01T10:54:22.290Z,45.79
2023-09-01T10:57:05.848Z,46.04
2023-09-01T10:59:36.278Z,45.07
2023-09-01T11:02:19.757Z,46.25
2023-09-01T11:04:47.141Z,44.92
2023-09-01T11:07:14.537Z,45.25
2023-09-01T11:09:41.226Z,45.34
2023-09-01T11:12:09.328Z,45.90
2023-09-01T11:14:38.294Z,45.36
2023-09-01T11:17:05.469Z,45.09
2023-09-01T11:19:47.650Z,45.55
2023-09-01T11:22:14.851Z,46.18
2023-09-01T11:24:46.060Z,46.14
2023-09-01T11:27:12.778Z,45.95
2023-09-01T11:29:39.576Z,45.92
2023-09-01T11:32:08.353Z,45.83
2023-09-01T11:34:39.652Z,46.18
2023-09-01T11:37:06.727Z,46.79
2023-09-01T11:39:33.383Z,45.90
2023-09-01T11:42:01.333Z,45.81
2023-09-01T11:44:28.147Z,45.84
2023-09-01T11:46:54.885Z,46.67
2023-09-01T11:49:21.591Z,46.43
2023-09-01T11:51:48.202Z,46.48
2023-09-01T11:54:14.886Z,47.00
2023-09-01T11:56:41.533Z,46.31
2023-09-01T11:59:08.117Z,47.01
2023-09-01T12:01:43.405Z,46.36
2023-09-01T12:04:10.989Z,47.48
2023-09-01T12:06:46.112Z,46.48
2023-09-01T12:09:18.397Z,46.76
2023-09-01T12:11:57.291Z,47.47
2023-09-01T12:14:24.996Z,47.40
2023-09-01T12:16:54.961Z,46.89
2023-09-01T12:19:23.955Z,46.24
2023-09-01T12:21:52.080Z,45.70
2023-09-01T12:24:18.739Z,45.70
2023-09-01T12:26:45.346Z,45.35
2023-09-01T12:29:11.965Z,45.53
2023-09-01T12:31:38.670Z,45.78
2023-09-01T12:34:05.516Z,45.40
2023-09-01T12:36:32.381Z,45.26
2023-09-01T12:38:58.966Z,46.02
2023-09-01T12:41:25.645Z,45.78
2023-09-01T12:43:52.265Z,45.66
2023-09-01T12:46:18.930Z,45.45
2023-09-01T12:48:45.641Z,45.77
2023-09-01T12:51:13.074Z,45.68
2023-09-01T12:53:40.550Z,45.24
2023-09-01T12:56:11.896Z,45.42
2023-09-01T12:58:38.536Z,45.40
2023-09-01T13:01:05.409Z,45.77
2023-09-01T13:03:32.183Z,46.13
2023-09-01T13:05:58.963Z,45.39
2023-09-01T13:08:28.015Z,45.59
2023-09-01T13:10:55.289Z,45.47
2023-09-01T13:13:22.787Z,46.73
2023-09-01T13:15:50.051Z,46.97
2023-09-01T13:18:17.301Z,45.86
2023-09-01T13:20:43.979Z,46.25
2023-09-01T13:23:10.611Z,45.64
2023-09-01T13:25:37.413Z,45.44
2023-09-01T13:28:04.382Z,45.74
2023-09-01T13:30:31.161Z,45.67
2023-09-01T13:32:57.892Z,45.30
2023-09-01T13:35:24.563Z,45.27
2023-09-01T13:37:51.188Z,45.33
2023-09-01T13:40:17.908Z,45.13
2023-09-01T13:42:44.520Z,45.48
2023-09-01T13:45:11.410Z,45.76
2023-09-01T13:47:38.032Z,46.12
2023-09-01T13:50:05.051Z,45.82
2023-09-01T13:52:31.687Z,45.77
2023-09-01T13:54:58.266Z,46.07
2023-09-01T13:57:24.895Z,45.98
2023-09-01T13:59:52.110Z,46.55
2023-09-01T14:02:19.280Z,46.37
2023-09-01T14:04:49.542Z,46.44
2023-09-01T14:07:17.409Z,46.42
2023-09-01T14:09:44.020Z,47.00
2023-09-01T14:12:11.561Z,46.74
2023-09-01T14:14:38.167Z,46.91
2023-09-01T14:17:04.977Z,46.88
2023-09-01T14:19:31.611Z,46.79
2023-09-01T14:21:58.495Z,47.21
2023-09-01T14:24:25.140Z,47.81
2023-09-01T14:26:55.431Z,47.31
2023-09-01T14:29:22.534Z,47.59
2023-09-01T14:31:49.251Z,47.60
2023-09-01T14:34:15.897Z,47.94
2023-09-01T14:36:42.548Z,48.20
2023-09-01T14:39:09.288Z,48.13
2023-09-01T14:41:35.901Z,48.28
2023-09-01T14:44:03.154Z,49.08
2023-09-01T14:46:34.164Z,48.97
2023-09-01T14:49:02.210Z,49.22
2023-09-01T14:51:29.943Z,49.84
2023-09-01T14:53:56.789Z,49.84
2023-09-01T14:56:24.848Z,50.19
2023-09-01T14:58:54.539Z,50.12
2023-09-01T15:01:23.397Z,50.59
2023-09-01T15:03:50.435Z,50.27
2023-09-01T15:06:17.141Z,50.54
2023-09-01T15:08:43.792Z,50.95
2023-09-01T15:11:10.394Z,50.76
2023-09-01T15:13:37.100Z,51.03
2023-09-01T15:16:04.024Z,51.23
2023-09-01T15:18:30.706Z,51.10
2023-09-01T15:21:04.691Z,50.97
2023-09-01T15:23:31.370Z,51.71
2023-09-01T15:25:58.201Z,51.91
2023-09-01T15:28:24.778Z,52.10
2023-09-01T15:30:51.478Z,51.71
2023-09-01T15:33:18.950Z,52.09
2023-09-01T15:35:53.502Z,51.53
2023-09-01T15:38:20.078Z,52.44
2023-09-01T15:40:46.696Z,52.16
2023-09-01T15:43:13.523Z,52.49
2023-09-01T15:45:46.174Z,52.54
2023-09-01T15:48:14.217Z,53.02
2023-09-01T15:50:46.274Z,53.05
2023-09-01T15:53:14.206Z,53.59
2023-09-01T15:55:41.418Z,53.75
2023-09-01T15:58:08.281Z,54.21
2023-09-01T16:00:38.936Z,53.82
2023-09-01T16:03:07.545Z,54.51
2023-09-01T16:05:41.093Z,53.58
2023-09-01T16:08:07.676Z,54.38
2023-09-01T16:10:35.413Z,54.45
2023-09-01T16:13:02.678Z,54.81
2023-09-01T16:15:29.894Z,54.64
2023-09-01T16:17:56.757Z,54.46
2023-09-01T16:20:25.800Z,54.81
2023-09-01T16:22:52.715Z,54.71
2023-09-01T16:25:19.609Z,54.59
2023-09-01T16:27:46.708Z,54.65
2023-09-01T16:30:14.149Z,55.08
2023-09-01T16:32:41.075Z,54.75
2023-09-01T16:35:23.950Z,53.99
2023-09-01T16:37:51.917Z,55.00
2023-09-01T16:40:19.186Z,54.79
2023-09-01T16:42:45.981Z,55.02
2023-09-01T16:45:14.696Z,54.50
2023-09-01T16:47:42.845Z,54.85
2023-09-01T16:50:11.361Z,55.13
2023-09-01T16:52:38.948Z,55.09
2023-09-01T16:55:06.341Z,54.64
2023-09-01T16:57:33.952Z,55.10
2023-09-01T17:00:00.672Z,54.78
2023-09-01T17:02:27.318Z,54.82
2023-09-01T17:04:54.037Z,55.41
2023-09-01T17:07:20.646Z,55.06
2023-09-01T17:10:08.447Z,54.04
2023-09-01T17:12:35.140Z,55.31
2023-09-01T17:15:02.678Z,55.73
2023-09-01T17:17:29.330Z,55.21
2023-09-01T17:19:55.960Z,55.32
2023-09-01T17:22:22.579Z,55.54
2023-09-01T17:24:49.141Z,55.44
2023-09-01T17:27:15.770Z,55.25
2023-09-01T17:29:42.434Z,55.46
2023-09-01T17:32:09.066Z,55.20
2023-09-01T17:34:35.661Z,55.36
2023-09-01T17:37:04.690Z,55.22
2023-09-01T17:39:31.593Z,55.61
2023-09-01T17:41:58.183Z,55.79
2023-09-01T17:44:24.797Z,55.52
2023-09-01T17:46:51.635Z,55.76
2023-09-01T17:49:18.198Z,55.45
2023-09-01T17:51:44.780Z,55.38
2023-09-01T17:54:11.349Z,55.68
2023-09-01T17:56:37.995Z,55.96
2023-09-01T17:59:04.755Z,55.55
2023-09-01T18:01:31.792Z,55.90
2023-09-01T18:03:58.589Z,55.98
2023-09-01T18:06:27.801Z,55.72
2023-09-01T18:08:55.694Z,55.68
2023-09-01T19:48:40.262Z,56.06
2023-09-01T19:51:08.582Z,56.72
2023-09-01T19:53:36.913Z,57.51
2023-09-01T19:56:14.267Z,56.23
2023-09-01T19:59:06.789Z,56.29
2023-09-01T20:01:34.671Z,57.76
2023-09-01T20:04:01.997Z,57.57
2023-09-01T20:06:29.485Z,58.12
2023-09-01T20:09:00.311Z,57.61
2023-09-01T20:11:27.700Z,57.86
2023-09-01T20:13:55.284Z,57.80
2023-09-01T20:16:30.958Z,57.70
2023-09-01T20:19:29.561Z,57.78
2023-09-01T20:22:00.611Z,57.93
2023-09-01T20:24:27.196Z,58.12
2023-09-01T20:26:53.813Z,58.04
2023-09-01T20:29:21.164Z,57.83
2023-09-01T20:31:47.730Z,57.95
2023-09-01T20:34:14.330Z,58.18
2023-09-01T20:36:40.999Z,58.25
2023-09-01T20:39:07.601Z,57.79
2023-09-01T20:41:34.358Z,57.87
2023-09-01T20:44:00.948Z,57.81
2023-09-01T20:46:27.846Z,57.77
2023-09-01T20:48:54.479Z,57.83
2023-09-01T20:51:22.901Z,57.76
2023-09-01T20:53:49.556Z,57.65
2023-09-01T20:56:16.133Z,58.13
2023-09-01T20:58:42.794Z,58.18
2023-09-01T21:01:09.791Z,58.16
2023-09-01T21:03:36.422Z,57.81
2023-09-01T21:06:03.256Z,57.75
2023-09-01T21:08:29.924Z,57.82
2023-09-01T21:10:56.495Z,57.39
2023-09-01T21:13:23.111Z,57.41
2023-09-01T21:15:51.716Z,57.19
2023-09-01T21:18:18.494Z,57.82
2023-09-01T21:20:45.165Z,57.49
2023-09-01T21:23:11.803Z,57.19
2023-09-01T21:25:39.249Z,57.30
2023-09-01T21:28:06.052Z,57.20
2023-09-01T21:30:32.688Z,57.13
2023-09-01T21:33:01.782Z,58.43
2023-09-01T21:35:28.390Z,57.74
2023-09-01T21:37:55.152Z,57.74
2023-09-01T21:40:21.868Z,57.70
2023-09-01T21:42:48.521Z,57.68
2023-09-01T21:45:15.115Z,58.02
2023-09-01T21:47:41.733Z,57.94
2023-09-01T21:50:08.983Z,57.67
2023-09-01T21:52:35.583Z,57.50
2023-09-01T21:55:02.426Z,57.49
2023-09-01T21:57:30.952Z,57.52
2023-09-01T21:59:57.833Z,58.16
2023-09-01T22:02:24.510Z,58.12
2023-09-01T22:04:52.565Z,58.08
2023-09-01T22:07:19.397Z,57.59
2023-09-01T22:09:46.071Z,57.87
2023-09-01T22:12:12.690Z,57.69
2023-09-01T22:14:39.440Z,57.71
2023-09-01T22:17:06.538Z,57.46
2023-09-01T22:19:33.252Z,57.62
2023-09-01T22:22:00.039Z,58.07
2023-09-01T22:24:35.569Z,57.79
2023-09-01T22:27:02.229Z,57.96
2023-09-01T22:29:29.049Z,58.12
2023-09-01T22:31:58.257Z,58.04
2023-09-01T22:34:25.451Z,58.42
2023-09-01T22:36:52.152Z,58.33
2023-09-01T22:39:18.818Z,58.36
2023-09-01T22:41:45.507Z,58.60
2023-09-01T22:44:12.157Z,58.75
2023-09-01T22:46:38.786Z,59.16
2023-09-01T22:49:05.475Z,58.72
2023-09-01T22:51:32.145Z,59.21
2023-09-01T22:53:58.743Z,59.19
2023-09-01T22:56:25.337Z,59.93
2023-09-01T22:58:51.942Z,59.40
2023-09-01T23:01:18.608Z,59.64
2023-09-01T23:03:45.292Z,59.76
2023-09-01T23:06:11.949Z,59.55
2023-09-01T23:08:38.597Z,59.72
2023-09-01T23:11:05.218Z,59.72
2023-09-01T23:13:32.017Z,60.03
2023-09-01T23:15:58.719Z,59.34
2023-09-01T23:18:25.917Z,59.44
2023-09-01T23:20:54.264Z,59.71
2023-09-01T23:23:21.202Z,59.68
2023-09-01T23:25:51.619Z,59.53
2023-09-01T23:28:18.566Z,59.31
2023-09-01T23:30:45.851Z,59.35
2023-09-01T23:33:12.500Z,59.28
2023-09-01T23:35:39.244Z,59.50
2023-09-01T23:38:05.941Z,59.37
2023-09-01T23:40:34.397Z,59.25
2023-09-01T23:43:01.352Z,59.41
2023-09-01T23:45:28.254Z,59.47
2023-09-01T23:47:56.725Z,59.66
2023-09-01T23:50:23.472Z,59.54
2023-09-01T23:52:50.071Z,59.47
2023-09-01T23:55:17.038Z,59.40
2023-09-01T23:57:43.690Z,59.85
